createdAt,value
2019-04-14T00:00:59.862Z,6.90
2019-04-14T00:06:02.652Z,6.80
2019-04-14T00:11:03.746Z,7.00
2019-04-14T00:16:03.806Z,6.90
2019-04-14T00:21:04.467Z,6.90
2019-04-14T00:26:29.133Z,6.90
2019-04-14T00:31:30.729Z,6.90
2019-04-14T00:36:50.212Z,6.80
2019-04-14T00:42:14.894Z,6.50
2019-04-14T00:47:50.858Z,6.50
2019-04-14T00:52:41.541Z,6.50
2019-04-14T00:57:41.970Z,6.40
2019-04-14T01:02:42.732Z,6.20
2019-04-14T01:07:43.422Z,6.10
2019-04-14T01:12:43.218Z,6.30
2019-04-14T01:17:43.901Z,6.70
2019-04-14T01:22:44.548Z,6.90
2019-04-14T01:27:45.048Z,6.90
2019-04-14T01:32:45.740Z,6.80
2019-04-14T01:37:46.435Z,6.70
2019-04-14T01:42:46.411Z,6.50
2019-04-14T01:47:46.724Z,6.40
2019-04-14T01:53:03.207Z,6.20
2019-04-14T01:58:12.225Z,5.70
2019-04-14T02:03:12.771Z,5.50
2019-04-14T02:08:13.452Z,5.40
2019-04-14T02:13:13.620Z,5.60
2019-04-14T02:18:14.431Z,5.60
2019-04-14T02:23:14.722Z,5.60
2019-04-14T02:28:15.511Z,5.70
2019-04-14T02:48:50.802Z,6.10
2019-04-14T02:53:50.087Z,6.10
2019-04-14T02:58:52.050Z,6.20
2019-04-14T03:08:59.090Z,6.70
2019-04-14T03:13:51.442Z,6.80
2019-04-14T03:19:06.481Z,6.90
2019-04-14T03:24:31.834Z,7.00
2019-04-14T03:29:40.677Z,7.00
2019-04-14T03:39:49.762Z,7.00
2019-04-14T03:49:47.099Z,7.00
2019-04-14T03:54:40.517Z,7.00
2019-04-14T03:59:23.850Z,7.10
2019-04-14T04:04:24.873Z,7.20
2019-04-14T04:09:32.166Z,7.10
2019-04-14T04:14:33.452Z,7.10
2019-04-14T04:19:40.497Z,7.10
2019-04-14T04:24:47.918Z,7.00
2019-04-14T04:29:55.494Z,7.00
2019-04-14T04:35:13.255Z,7.10
2019-04-14T04:40:20.146Z,7.00
2019-04-14T04:45:19.814Z,6.90
2019-04-14T04:50:19.487Z,6.90
2019-04-14T04:55:19.820Z,7.00
2019-04-14T05:00:20.047Z,7.10
2019-04-14T05:05:56.094Z,7.20
2019-04-14T05:11:12.818Z,7.30
2019-04-14T05:16:12.785Z,7.30
2019-04-14T05:21:12.838Z,7.40
2019-04-14T05:26:13.440Z,7.40
2019-04-14T05:31:14.210Z,7.50
2019-04-14T05:36:15.030Z,7.60
2019-04-14T05:41:15.741Z,7.60
2019-04-14T05:46:16.357Z,7.60
2019-04-14T05:51:18.872Z,7.70
2019-04-14T05:56:18.635Z,7.60
2019-04-14T06:01:18.652Z,7.60
2019-04-14T06:06:18.430Z,7.50
2019-04-14T06:11:18.070Z,7.40
2019-04-14T06:16:18.054Z,7.30
2019-04-14T06:21:17.678Z,7.30
2019-04-14T06:26:17.319Z,7.30
2019-04-14T06:31:26.166Z,7.20
2019-04-14T06:36:44.912Z,7.20
2019-04-14T06:41:44.554Z,7.10
2019-04-14T06:46:44.226Z,7.30
2019-04-14T06:51:44.838Z,7.60
2019-04-14T06:56:44.454Z,7.70
2019-04-14T07:01:44.186Z,7.90
2019-04-14T07:06:43.838Z,7.90
2019-04-14T07:11:43.810Z,8.00
2019-04-14T07:16:43.537Z,8.10
2019-04-14T07:21:43.170Z,8.30
2019-04-14T07:26:42.798Z,8.50
2019-04-14T07:32:00.406Z,8.70
2019-04-14T07:37:22.210Z,8.60
2019-04-14T07:42:59.490Z,8.50
2019-04-14T07:48:24.608Z,8.50
2019-04-14T07:53:34.378Z,8.50
2019-04-14T07:58:53.370Z,8.60
2019-04-14T08:04:18.491Z,8.70
2019-04-14T08:09:18.228Z,8.90
2019-04-14T08:14:17.848Z,8.90
2019-04-14T08:19:17.594Z,9.00
2019-04-14T08:24:17.218Z,9.20
2019-04-14T08:29:16.987Z,9.50
2019-04-14T08:34:16.703Z,9.60
2019-04-14T08:39:16.362Z,9.70
2019-04-14T08:44:41.355Z,9.70
2019-04-14T08:49:48.166Z,9.90
2019-04-14T08:55:06.915Z,10.00
2019-04-14T09:00:16.806Z,10.00
2019-04-14T09:05:25.462Z,9.90
2019-04-14T09:10:28.683Z,10.00
2019-04-14T09:15:28.472Z,10.10
2019-04-14T09:20:28.380Z,10.30
2019-04-14T09:25:28.038Z,10.20
2019-04-14T09:30:27.763Z,10.10
2019-04-14T09:35:27.432Z,10.00
2019-04-14T09:40:27.086Z,9.90
2019-04-14T09:45:27.071Z,9.90
2019-04-14T09:50:26.722Z,9.80
2019-04-14T09:55:26.732Z,9.80
2019-04-14T10:00:26.383Z,9.80
2019-04-14T10:05:26.209Z,9.80
2019-04-14T10:10:25.917Z,9.70
2019-04-14T10:15:25.962Z,9.60
2019-04-14T10:20:25.642Z,9.60
2019-04-14T10:25:25.270Z,9.70
2019-04-14T10:30:24.903Z,9.70
2019-04-14T10:35:24.626Z,9.60
2019-04-14T10:40:24.319Z,9.60
2019-04-14T10:45:24.031Z,9.80
2019-04-14T10:50:30.583Z,9.90
2019-04-14T10:55:25.567Z,9.90
2019-04-14T11:00:25.227Z,9.90
2019-04-14T11:05:26.907Z,9.90
2019-04-14T11:10:26.694Z,9.90
2019-04-14T11:15:26.421Z,10.00
2019-04-14T11:20:26.403Z,10.10
2019-04-14T11:25:26.046Z,10.10
2019-04-14T11:30:25.825Z,10.00
2019-04-14T11:35:33.615Z,9.90
2019-04-14T11:40:38.091Z,9.80
2019-04-14T11:45:37.823Z,9.60
2019-04-14T11:50:37.492Z,9.60
2019-04-14T11:55:37.234Z,9.40
2019-04-14T12:00:56.102Z,9.30
2019-04-14T12:06:13.570Z,9.20
2019-04-14T12:11:13.274Z,9.20
2019-04-14T12:16:12.958Z,9.30
2019-04-14T12:21:12.913Z,9.50
2019-04-14T12:26:12.615Z,9.70
2019-04-14T12:31:13.136Z,9.70
2019-04-14T12:36:13.373Z,9.60
2019-04-14T12:41:17.783Z,9.60
2019-04-14T12:46:30.874Z,9.60
2019-04-14T12:51:37.739Z,9.70
2019-04-14T12:56:37.639Z,9.60
2019-04-14T13:01:40.735Z,9.70
2019-04-14T13:06:40.397Z,9.70
2019-04-14T13:11:40.210Z,9.70
2019-04-14T13:16:39.862Z,9.60
2019-04-14T13:21:40.543Z,9.70
2019-04-14T13:26:40.797Z,9.70
2019-04-14T13:31:40.454Z,9.80
2019-04-14T13:36:40.210Z,9.90
2019-04-14T13:41:40.104Z,9.90
2019-04-14T13:46:39.823Z,10.00
2019-04-14T13:51:39.490Z,9.90
2019-04-14T13:56:39.223Z,9.90
2019-04-14T14:01:38.857Z,10.00
2019-04-14T14:06:38.508Z,10.10
2019-04-14T14:12:00.350Z,10.20
2019-04-14T14:17:06.586Z,10.40
2019-04-14T14:22:10.942Z,10.40
2019-04-14T14:27:10.978Z,10.50
2019-04-14T14:32:25.338Z,10.40
2019-04-14T14:37:24.985Z,10.40
2019-04-14T14:42:25.794Z,10.50
2019-04-14T14:47:28.308Z,10.60
2019-04-14T14:52:27.960Z,10.70
2019-04-14T14:57:27.695Z,10.70
2019-04-14T15:02:27.416Z,10.60
2019-04-14T15:07:27.476Z,10.60
2019-04-14T15:12:27.445Z,10.50
2019-04-14T15:17:27.661Z,10.50
2019-04-14T15:22:27.318Z,10.50
2019-04-14T15:27:27.150Z,10.50
2019-04-14T15:32:26.803Z,10.40
2019-04-14T15:37:27.562Z,10.30
2019-04-14T15:42:27.285Z,10.40
2019-04-14T15:47:27.018Z,10.40
2019-04-14T15:52:26.782Z,10.40
2019-04-14T15:57:37.315Z,10.50
2019-04-14T16:02:55.514Z,10.50
2019-04-14T16:08:16.218Z,10.60
2019-04-14T16:13:21.898Z,10.60
2019-04-14T16:18:45.674Z,10.60
2019-04-14T16:23:50.875Z,10.70
2019-04-14T16:28:51.552Z,10.70
2019-04-14T16:34:12.302Z,10.50
2019-04-14T16:39:13.083Z,10.50
2019-04-14T16:44:13.106Z,10.50
2019-04-14T16:49:12.762Z,10.40
2019-04-14T16:54:34.765Z,10.40
2019-04-14T16:59:35.140Z,10.30
2019-04-14T17:04:34.812Z,10.30
2019-04-14T17:09:34.879Z,10.40
2019-04-14T17:14:44.798Z,10.50
2019-04-14T17:20:03.475Z,10.60
2019-04-14T17:25:08.542Z,10.60
2019-04-14T17:30:27.169Z,10.70
2019-04-14T17:35:39.580Z,10.70
2019-04-14T17:41:01.147Z,10.70
2019-04-14T17:46:18.879Z,10.80
2019-04-14T17:51:36.491Z,10.90
2019-04-14T17:57:04.696Z,10.90
2019-04-14T18:02:15.415Z,10.80
2019-04-14T18:07:24.568Z,10.70
2019-04-14T18:12:52.381Z,10.60
2019-04-14T18:18:09.915Z,10.60
2019-04-14T18:23:10.592Z,10.50
2019-04-14T18:28:27.898Z,10.40
2019-04-14T18:33:37.222Z,10.30
2019-04-14T18:38:58.643Z,10.10
2019-04-14T18:44:19.205Z,10.00
2019-04-14T18:49:24.960Z,10.10
2019-04-14T18:54:31.698Z,10.00
2019-04-14T18:59:52.066Z,10.20
2019-04-14T19:04:51.714Z,10.10
2019-04-14T19:09:51.855Z,10.10
2019-04-14T19:14:57.918Z,10.10
2019-04-14T19:20:02.018Z,10.00
2019-04-14T19:25:18.187Z,10.00
2019-04-14T19:30:18.745Z,9.90
2019-04-14T19:35:18.662Z,10.00
2019-04-14T19:40:18.482Z,10.00
2019-04-14T19:45:18.150Z,10.00
2019-04-14T19:50:17.947Z,10.20
2019-04-14T19:55:20.472Z,10.30
2019-04-14T20:00:19.645Z,10.30
2019-04-14T20:05:19.624Z,10.30
2019-04-14T20:10:19.470Z,10.10
2019-04-14T20:15:26.291Z,10.10
2019-04-14T20:20:42.519Z,10.00
2019-04-14T20:26:03.251Z,10.00
2019-04-14T20:31:16.458Z,10.00
2019-04-14T20:36:16.111Z,10.00
2019-04-14T20:41:15.947Z,10.00
2019-04-14T20:46:16.016Z,10.00
2019-04-14T20:51:15.671Z,9.90
2019-04-14T20:56:15.696Z,9.90
2019-04-14T21:01:16.083Z,9.90
2019-04-14T21:06:50.337Z,9.90
2019-04-14T21:12:03.148Z,9.70
2019-04-14T21:17:28.398Z,9.60
2019-04-14T21:22:41.352Z,9.60
2019-04-14T21:28:06.127Z,9.60
2019-04-14T21:33:17.934Z,9.50
2019-04-14T21:38:37.385Z,9.60
2019-04-14T21:43:37.103Z,9.50
2019-04-14T21:48:36.859Z,9.50
2019-04-14T21:53:36.493Z,9.50
2019-04-14T21:58:55.498Z,9.30
2019-04-14T22:04:25.181Z,9.30
2019-04-14T22:09:31.970Z,9.40
2019-04-14T22:14:31.686Z,9.40
2019-04-14T22:19:31.463Z,9.30
2019-04-14T22:24:31.090Z,9.40
2019-04-14T22:29:30.759Z,9.50
2019-04-14T22:34:30.386Z,9.30
2019-04-14T22:39:30.078Z,9.10
2019-04-14T22:44:29.720Z,9.10
2019-04-14T22:49:29.438Z,9.10
2019-04-14T22:54:29.042Z,9.00
2019-04-14T22:59:28.814Z,9.00
2019-04-14T23:04:41.782Z,9.00
2019-04-14T23:09:46.044Z,8.90
2019-04-14T23:14:57.022Z,8.90
2019-04-14T23:20:01.518Z,8.80
2019-04-14T23:25:01.499Z,8.60
2019-04-14T23:30:01.163Z,8.60
2019-04-14T23:35:00.894Z,8.60
2019-04-14T23:40:00.589Z,8.70
2019-04-14T23:45:00.770Z,8.80
2019-04-14T23:50:13.872Z,8.80
2019-04-14T23:55:13.663Z,8.90
